Time;durP1;ratioP1;P1;durP2;ratioP2;P2;SDS_P1;SDS_P2;PMS_P1;PMS_P2;Temp;Humidity;BMP_temperature;BMP_pressure;BME280_temperature;BME280_humidity;BME280_pressure;Samples;Min_cycle;Max_cycle;Signal;HPM_P1;HPM_P2
2024/02/22 00:00:46;;;;;;;58.20;33.83;;;;;;;6.52;100.00;92599.69;5026779;28;20037;-80
2024/02/22 00:03:13;;;;;;;56.03;32.35;;;;;;;6.46;100.00;92597.09;5042809;28;20025;-80
2024/02/22 00:05:38;;;;;;;56.58;32.75;;;;;;;6.46;100.00;92599.69;5033256;28;20057;-78
2024/02/22 00:08:04;;;;;;;56.47;32.53;;;;;;;6.46;100.00;92593.69;5057378;28;20041;-79
2024/02/22 00:10:30;;;;;;;51.22;30.70;;;;;;;6.44;100.00;92590.59;5047056;28;20124;-80
2024/02/22 00:12:58;;;;;;;54.08;31.80;;;;;;;6.46;100.00;92584.09;5054774;28;20092;-80
2024/02/22 00:15:25;;;;;;;55.75;32.47;;;;;;;6.46;100.00;92584.09;5056697;28;20045;-80
2024/02/22 00:17:52;;;;;;;57.13;32.63;;;;;;;6.47;100.00;92579.66;5039704;28;20111;-78
2024/02/22 00:20:18;;;;;;;54.65;32.03;;;;;;;6.36;100.00;92565.84;5051101;28;20401;-79
2024/02/22 00:22:44;;;;;;;55.30;32.00;;;;;;;6.42;100.00;92577.84;5070737;28;20029;-80
2024/02/22 00:25:10;;;;;;;56.33;32.17;;;;;;;6.40;100.00;92581.72;5048023;28;20547;-79
2024/02/22 00:27:38;;;;;;;56.28;31.63;;;;;;;6.41;100.00;92581.47;5033094;28;20033;-79
2024/02/22 00:30:12;;;;;;;59.40;32.45;;;;;;;6.41;100.00;92581.47;5052680;28;20047;-80
2024/02/22 00:32:38;;;;;;;55.38;31.70;;;;;;;6.43;100.00;92581.97;5055490;28;20489;-80
2024/02/22 00:35:05;;;;;;;65.95;33.88;;;;;;;6.40;100.00;92574.72;5044417;28;20072;-80
2024/02/22 00:37:32;;;;;;;61.42;35.10;;;;;;;6.44;100.00;92569.78;5048097;28;20197;-80
2024/02/22 00:39:58;;;;;;;60.05;34.20;;;;;;;6.45;100.00;92572.09;5036527;28;20031;-80
2024/02/22 00:42:24;;;;;;;59.50;33.35;;;;;;;6.45;100.00;92566.91;5054174;28;20045;-79
2024/02/22 00:44:49;;;;;;;61.95;34.65;;;;;;;6.44;100.00;92560.16;5063834;28;20033;-80
2024/02/22 00:47:15;;;;;;;58.55;33.72;;;;;;;6.45;100.00;92556.50;5036789;28;20523;-80
2024/02/22 00:49:40;;;;;;;57.13;32.70;;;;;;;6.41;100.00;92539.06;5054406;28;20041;-80
2024/02/22 00:52:06;;;;;;;59.80;33.15;;;;;;;6.45;100.00;92546.09;5054404;28;20385;-79
2024/02/22 00:54:31;;;;;;;60.63;33.88;;;;;;;6.46;100.00;92539.06;5061107;28;20032;-80
2024/02/22 00:56:57;;;;;;;61.15;32.95;;;;;;;6.46;100.00;92532.09;5052114;28;20041;-80
2024/02/22 00:59:22;;;;;;;54.22;31.83;;;;;;;6.43;100.00;92532.56;5044790;28;20036;-80
2024/02/22 01:01:48;;;;;;;57.83;32.78;;;;;;;6.41;100.00;92520.88;5039754;28;20106;-79
2024/02/22 01:04:15;;;;;;;59.83;32.38;;;;;;;6.40;100.00;92514.91;5059470;28;20102;-80
2024/02/22 01:06:42;;;;;;;57.40;32.10;;;;;;;6.38;100.00;92505.81;5039010;28;20029;-80
2024/02/22 01:09:09;;;;;;;53.80;31.48;;;;;;;6.38;100.00;92513.59;5068303;28;20036;-80
2024/02/22 01:11:35;;;;;;;58.13;30.63;;;;;;;6.37;100.00;92506.81;5038476;28;20037;-79
2024/02/22 01:14:00;;;;;;;52.47;29.92;;;;;;;6.36;100.00;92506.06;5058607;28;20567;-79
2024/02/22 01:16:26;;;;;;;56.28;31.27;;;;;;;6.30;100.00;92488.88;5062152;28;20128;-80
2024/02/22 01:18:52;;;;;;;52.80;31.02;;;;;;;6.37;100.00;92499.84;5018786;28;20029;-79
2024/02/22 01:21:18;;;;;;;49.30;28.80;;;;;;;6.37;100.00;92497.22;5036466;28;20040;-79
2024/02/22 01:23:43;;;;;;;54.17;29.58;;;;;;;6.39;100.00;92497.72;5055296;28;20109;-80
2024/02/22 01:26:10;;;;;;;49.95;29.50;;;;;;;6.38;100.00;92488.38;5022024;28;20041;-79
2024/02/22 01:28:35;;;;;;;50.13;27.50;;;;;;;6.39;100.00;92494.34;5033965;28;20094;-79
2024/02/22 01:31:02;;;;;;;48.70;29.27;;;;;;;6.39;100.00;92492.53;5053101;28;20492;-80
2024/02/22 01:33:27;;;;;;;48.67;28.05;;;;;;;6.41;100.00;92487.84;5053112;28;20025;-79
2024/02/22 01:35:53;;;;;;;50.03;28.92;;;;;;;6.38;100.00;92483.19;5052680;28;20041;-78
2024/02/22 01:38:19;;;;;;;48.38;29.42;;;;;;;6.38;100.00;92475.38;5035515;28;20442;-79
2024/02/22 01:40:44;;;;;;;50.80;28.90;;;;;;;6.41;100.00;92471.47;5047187;28;20041;-79
2024/02/22 01:43:10;;;;;;;50.83;29.20;;;;;;;6.40;100.00;92469.94;5014904;28;20443;-79
2024/02/22 01:45:36;;;;;;;48.60;28.23;;;;;;;6.41;100.00;92472.25;5043951;28;20068;-79
2024/02/22 01:48:03;;;;;;;49.67;28.08;;;;;;;6.37;100.00;92463.44;5035763;28;20029;-78
2024/02/22 01:50:29;;;;;;;50.05;27.20;;;;;;;6.37;100.00;92455.63;5053377;28;20041;-80
2024/02/22 01:52:55;;;;;;;49.97;27.08;;;;;;;6.40;100.00;92455.09;5053372;28;20036;-79
2024/02/22 01:55:24;;;;;;;46.80;28.50;;;;;;;6.38;100.00;92446.78;5061087;28;20036;-80
2024/02/22 01:57:52;;;;;;;53.45;29.55;;;;;;;6.37;100.00;92439.22;5060317;28;20527;-80
2024/02/22 02:00:22;;;;;;;52.30;29.98;;;;;;;6.36;100.00;92442.88;5041848;28;20048;-80
2024/02/22 02:02:48;;;;;;;55.33;30.15;;;;;;;6.37;100.00;92450.44;5055603;28;20037;-80
2024/02/22 02:05:13;;;;;;;61.92;35.25;;;;;;;6.34;100.00;92445.72;5066920;28;20056;-80
2024/02/22 02:07:39;;;;;;;75.22;40.63;;;;;;;6.38;100.00;92443.41;5036044;28;20086;-79
2024/02/22 02:10:08;;;;;;;76.10;42.30;;;;;;;6.30;100.00;92429.09;5047623;28;20045;-79
2024/02/22 02:12:34;;;;;;;70.65;40.10;;;;;;;6.32;100.00;92434.81;5033919;28;20766;-80
2024/02/22 02:15:00;;;;;;;76.05;41.80;;;;;;;6.31;100.00;92435.09;5051519;28;20122;-79
2024/02/22 02:17:25;;;;;;;75.63;42.53;;;;;;;6.29;100.00;92439.78;5052654;28;20055;-80
2024/02/22 02:19:53;;;;;;;69.00;37.97;;;;;;;6.23;100.00;92428.56;5030589;28;20076;-80
2024/02/22 02:22:38;;;;;;;69.50;37.60;;;;;;;6.28;100.00;92431.16;5047449;28;20021;-80
2024/02/22 02:25:04;;;;;;;79.80;42.25;;;;;;;6.27;100.00;92421.03;5041152;28;20044;-80
2024/02/22 02:27:31;;;;;;;73.22;41.72;;;;;;;6.27;100.00;92415.84;5050106;28;20381;-79
2024/02/22 02:29:56;;;;;;;78.50;43.75;;;;;;;6.31;100.00;92415.06;5035154;28;20033;-79
2024/02/22 02:32:22;;;;;;;78.07;42.47;;;;;;;6.30;100.00;92400.50;5050802;28;20028;-81
2024/02/22 02:34:48;;;;;;;79.55;43.25;;;;;;;6.29;100.00;92400.78;5033556;28;20051;-79
2024/02/22 02:37:13;;;;;;;86.10;43.92;;;;;;;6.28;100.00;92383.59;5051999;28;20044;-78
2024/02/22 02:39:40;;;;;;;80.63;44.47;;;;;;;6.32;100.00;92401.00;5034084;28;20098;-80
2024/02/22 02:42:06;;;;;;;84.43;45.85;;;;;;;6.31;100.00;92396.88;5055528;28;20091;-79
2024/02/22 02:44:32;;;;;;;75.72;42.47;;;;;;;6.30;100.00;92394.53;5051372;28;20037;-80
2024/02/22 02:46:57;;;;;;;77.00;43.47;;;;;;;6.31;100.00;92399.47;5051325;28;20033;-80
2024/02/22 02:49:23;;;;;;;73.72;41.58;;;;;;;6.29;100.00;92398.94;5051890;28;20114;-79
2024/02/22 02:51:48;;;;;;;72.03;41.42;;;;;;;6.30;100.00;92386.72;5052119;28;20085;-79
2024/02/22 02:54:14;;;;;;;78.22;42.75;;;;;;;6.30;100.00;92392.69;5051424;28;20040;-81
2024/02/22 02:56:40;;;;;;;76.97;40.95;;;;;;;6.34;100.00;92388.53;5034230;28;20392;-80
2024/02/22 02:59:06;;;;;;;76.75;41.55;;;;;;;6.11;100.00;92345.69;5049407;28;20044;-79
2024/02/22 03:01:31;;;;;;;64.93;36.67;;;;;;;6.60;100.00;92375.50;5064775;28;20037;-80
2024/02/22 03:03:58;;;;;;;73.38;40.40;;;;;;;6.39;100.00;92362.53;5051304;28;20570;-80
2024/02/22 03:06:24;;;;;;;63.85;36.88;;;;;;;6.39;100.00;92353.94;5060644;28;20419;-80
2024/02/22 03:08:49;;;;;;;58.60;34.65;;;;;;;6.36;100.00;92355.25;5072092;28;20040;-81
2024/02/22 03:11:15;;;;;;;68.45;36.05;;;;;;;6.27;100.00;92346.44;5068954;28;20031;-80
2024/02/22 03:13:40;;;;;;;61.78;36.25;;;;;;;6.29;100.00;92353.97;5033366;28;20143;-79
2024/02/22 03:16:07;;;;;;;57.90;30.33;;;;;;;6.51;100.00;92340.66;5016052;28;20029;-80
2024/02/22 03:18:35;;;;;;;61.30;35.35;;;;;;;6.32;100.00;92333.41;5049149;28;20044;-81
2024/02/22 03:21:01;;;;;;;60.53;32.72;;;;;;;6.31;100.00;92333.69;5051466;28;20037;-80
2024/02/22 03:23:27;;;;;;;59.55;32.80;;;;;;;6.28;100.00;92331.59;5032998;28;20122;-80
2024/02/22 03:25:53;;;;;;;61.45;35.45;;;;;;;6.08;100.00;92316.81;5039226;28;20036;-80
2024/02/22 03:28:19;;;;;;;62.03;33.10;;;;;;;6.21;100.00;92334.47;5050543;28;20471;-80
2024/02/22 03:30:46;;;;;;;57.38;34.17;;;;;;;6.19;100.00;92339.16;5054671;28;20029;-80
2024/02/22 03:33:13;;;;;;;54.55;31.33;;;;;;;6.18;100.00;92353.97;5033123;28;20041;-80
2024/02/22 03:35:39;;;;;;;49.25;32.22;;;;;;;6.18;100.00;92355.81;5033765;28;20477;-80
2024/02/22 03:38:05;;;;;;;56.30;32.63;;;;;;;6.10;100.00;92341.50;5051184;28;20037;-78
2024/02/22 03:40:31;;;;;;;57.95;34.22;;;;;;;6.16;100.00;92355.28;5050458;28;20024;-80
2024/02/22 03:42:59;;;;;;;59.03;34.28;;;;;;;6.16;100.00;92334.50;5060508;28;20407;-80
2024/02/22 03:45:25;;;;;;;58.60;34.05;;;;;;;6.12;100.00;92317.84;5050670;28;20112;-80
2024/02/22 03:47:50;;;;;;;58.95;35.17;;;;;;;6.14;100.00;92320.97;5036593;28;20060;-79
2024/02/22 03:50:16;;;;;;;62.03;33.42;;;;;;;6.10;100.00;92319.94;5055979;28;20021;-80
2024/02/22 03:52:41;;;;;;;59.50;33.72;;;;;;;6.15;100.00;92332.94;5038394;28;20061;-79
2024/02/22 03:55:11;;;;;;;65.45;37.38;;;;;;;6.16;100.00;92324.09;5022532;28;20029;-78
2024/02/22 03:57:37;;;;;;;68.55;36.85;;;;;;;6.16;100.00;92324.09;5058092;28;20052;-79
2024/02/22 04:00:07;;;;;;;66.97;37.17;;;;;;;6.14;100.00;92302.78;5060093;28;20037;-79
2024/02/22 04:02:38;;;;;;;54.30;31.75;;;;;;;6.09;100.00;92298.38;5058488;28;20041;-79
2024/02/22 04:05:04;;;;;;;56.72;31.85;;;;;;;6.15;100.00;92317.34;5055523;28;20048;-80
2024/02/22 04:07:30;;;;;;;58.05;32.50;;;;;;;6.17;100.00;92312.66;5055892;28;20036;-80
2024/02/22 04:09:55;;;;;;;48.42;28.52;;;;;;;6.27;100.00;92310.03;5037538;28;20099;-79
2024/02/22 04:12:21;;;;;;;55.60;31.65;;;;;;;6.32;100.00;92310.03;5019466;28;20393;-78
2024/02/22 04:14:47;;;;;;;63.92;35.15;;;;;;;6.13;100.00;92303.84;5039662;28;20029;-79
2024/02/22 04:17:12;;;;;;;75.22;39.25;;;;;;;5.93;100.00;92292.38;5037824;28;20037;-79
2024/02/22 04:19:38;;;;;;;77.22;41.50;;;;;;;5.77;100.00;92294.22;5038386;28;20047;-79
2024/02/22 04:22:03;;;;;;;74.28;41.45;;;;;;;5.76;100.00;92318.63;5063668;28;20025;-80
2024/02/22 04:24:29;;;;;;;62.35;34.15;;;;;;;5.78;100.00;92293.16;5055001;28;20116;-80
2024/02/22 04:26:55;;;;;;;71.78;37.45;;;;;;;5.76;100.00;92303.03;5018070;28;20033;-80
2024/02/22 04:29:20;;;;;;;67.07;35.85;;;;;;;5.66;100.00;92307.47;5028134;28;20049;-79
2024/02/22 04:31:47;;;;;;;55.30;31.48;;;;;;;5.47;100.00;92294.22;5048282;28;20037;-80
2024/02/22 04:34:12;;;;;;;55.55;30.75;;;;;;;5.34;100.00;92283.31;5044401;28;20044;-80
2024/02/22 04:36:40;;;;;;;62.63;30.77;;;;;;;5.19;100.00;92297.03;5047914;28;20035;-79
2024/02/22 04:39:07;;;;;;;56.17;30.27;;;;;;;5.11;100.00;92283.78;5043334;28;20039;-79
2024/02/22 04:41:33;;;;;;;57.45;29.05;;;;;;;5.06;100.00;92271.59;5039246;28;20025;-79
2024/02/22 04:43:59;;;;;;;53.67;28.85;;;;;;;5.05;100.00;92277.81;5036854;28;20037;-79
2024/02/22 04:46:24;;;;;;;51.00;27.33;;;;;;;5.00;100.00;92278.59;5032664;28;20117;-79
2024/02/22 04:48:50;;;;;;;50.72;25.65;;;;;;;4.99;100.00;92269.22;5057381;28;20079;-79
2024/02/22 04:51:16;;;;;;;45.45;24.88;;;;;;;5.05;100.00;92280.41;5040969;28;20040;-80
2024/02/22 04:53:41;;;;;;;43.63;23.42;;;;;;;5.08;100.00;92271.34;5062283;28;20370;-80
2024/02/22 04:56:08;;;;;;;43.80;23.67;;;;;;;5.12;100.00;92264.59;5063122;28;20063;-81
2024/02/22 04:58:36;;;;;;;44.72;23.23;;;;;;;5.05;100.00;92259.66;5046143;28;20182;-80
2024/02/22 05:01:02;;;;;;;45.10;24.27;;;;;;;5.12;100.00;92257.59;5062420;28;20378;-79
2024/02/22 05:03:27;;;;;;;45.08;24.25;;;;;;;5.14;100.00;92263.31;5038096;28;20029;-79
2024/02/22 05:05:53;;;;;;;40.97;22.73;;;;;;;5.18;100.00;92264.34;5049210;28;20463;-80
2024/02/22 05:08:19;;;;;;;43.35;23.02;;;;;;;5.17;100.00;92255.00;5054770;28;20048;-78
2024/02/22 05:10:44;;;;;;;46.22;23.48;;;;;;;5.17;100.00;92256.81;5059744;28;20051;-79
2024/02/22 05:13:10;;;;;;;43.75;23.02;;;;;;;5.16;100.00;92253.44;5053996;28;20041;-79
2024/02/22 05:15:35;;;;;;;43.05;23.60;;;;;;;5.15;100.00;92246.69;5043713;28;20024;-80
2024/02/22 05:18:01;;;;;;;41.65;22.92;;;;;;;5.15;100.00;92243.31;5054645;28;20040;-79
2024/02/22 05:20:26;;;;;;;43.72;23.60;;;;;;;4.97;100.00;92250.56;5067235;28;20035;-80
2024/02/22 05:22:52;;;;;;;40.45;23.52;;;;;;;4.96;100.00;92240.44;5059694;28;20040;-80
2024/02/22 05:25:18;;;;;;;42.40;23.77;;;;;;;4.78;100.00;92224.31;5037389;28;20484;-80
2024/02/22 05:27:43;;;;;;;47.90;24.25;;;;;;;4.82;100.00;92229.00;5015810;28;20057;-79
2024/02/22 05:30:10;;;;;;;49.50;24.77;;;;;;;4.79;100.00;92231.06;5039357;28;20024;-79
2024/02/22 05:32:36;;;;;;;46.90;25.35;;;;;;;4.75;100.00;92229.25;5054850;28;20064;-80
2024/02/22 05:35:01;;;;;;;47.65;24.23;;;;;;;4.76;100.00;92239.38;5055069;28;20377;-79
2024/02/22 05:37:27;;;;;;;44.17;23.98;;;;;;;4.78;100.00;92232.09;5056238;28;20395;-78
2024/02/22 05:39:55;;;;;;;45.42;25.42;;;;;;;4.83;100.00;92233.16;5046101;28;20063;-82
2024/02/22 05:42:20;;;;;;;46.25;24.80;;;;;;;4.84;100.00;92235.50;5040375;28;20037;-79
2024/02/22 05:44:46;;;;;;;48.20;25.67;;;;;;;4.90;100.00;92236.28;5057457;28;20400;-79
2024/02/22 05:47:13;;;;;;;48.70;24.30;;;;;;;4.90;100.00;92228.50;5031697;28;20036;-79
2024/02/22 05:49:40;;;;;;;42.95;23.55;;;;;;;4.92;100.00;92209.03;5053168;28;20511;-80
2024/02/22 05:52:06;;;;;;;44.80;24.63;;;;;;;4.93;100.00;92202.03;5048773;28;20589;-79
2024/02/22 05:54:31;;;;;;;41.45;21.92;;;;;;;4.94;100.00;92198.41;5036007;28;20111;-80
2024/02/22 05:57:00;;;;;;;39.38;22.17;;;;;;;4.94;100.00;92194.00;5052877;28;20033;-79
2024/02/22 05:59:29;;;;;;;37.85;20.65;;;;;;;4.96;100.00;92188.56;5033873;28;20076;-80
2024/02/22 06:01:55;;;;;;;37.35;20.15;;;;;;;4.99;100.00;92190.63;5045877;28;20037;-79
2024/02/22 06:04:20;;;;;;;37.90;19.45;;;;;;;5.00;100.00;92184.44;5049721;28;20049;-79
2024/02/22 06:06:46;;;;;;;32.85;18.23;;;;;;;5.02;100.00;92177.13;5038842;28;20040;-80
2024/02/22 06:09:11;;;;;;;35.88;19.17;;;;;;;5.01;100.00;92175.59;5035829;28;20032;-80
2024/02/22 06:11:39;;;;;;;35.00;19.25;;;;;;;5.05;100.00;92175.88;5055901;28;20075;-78
2024/02/22 06:14:05;;;;;;;36.65;19.92;;;;;;;5.10;100.00;92165.47;5053229;28;20025;-79
2024/02/22 06:16:30;;;;;;;35.90;20.60;;;;;;;5.01;100.00;92160.81;5062065;28;20043;-80
2024/02/22 06:18:56;;;;;;;33.28;19.50;;;;;;;5.01;100.00;92165.22;5048952;28;20029;-80
2024/02/22 06:21:29;;;;;;;39.92;20.08;;;;;;;5.01;100.00;92175.59;5053689;28;20639;-80
2024/02/22 06:23:55;;;;;;;37.45;20.05;;;;;;;5.04;100.00;92174.28;5051560;28;20612;-78
2024/02/22 06:26:21;;;;;;;36.72;20.90;;;;;;;5.00;100.00;92180.00;5041240;28;20029;-81
2024/02/22 06:28:47;;;;;;;33.83;19.40;;;;;;;5.01;100.00;92185.97;5037077;28;20128;-79
2024/02/22 06:31:13;;;;;;;34.85;18.83;;;;;;;4.98;100.00;92189.88;5062606;28;20498;-79
2024/02/22 06:33:39;;;;;;;33.00;19.83;;;;;;;4.96;100.00;92191.16;5045404;28;20102;-79
2024/02/22 06:36:09;;;;;;;35.03;19.90;;;;;;;4.94;100.00;92186.22;5020589;28;20037;-80
2024/02/22 06:38:39;;;;;;;38.22;19.23;;;;;;;4.93;100.00;92192.47;5036478;28;20284;-80
2024/02/22 06:41:05;;;;;;;34.45;18.42;;;;;;;4.93;100.00;92189.06;5054275;28;20041;-79
2024/02/22 06:43:30;;;;;;;41.83;18.77;;;;;;;4.97;100.00;92190.88;5031157;28;20017;-79
2024/02/22 06:45:56;;;;;;;32.20;17.95;;;;;;;4.99;100.00;92183.63;5055565;28;20053;-80
2024/02/22 06:48:23;;;;;;;29.83;16.23;;;;;;;4.99;100.00;92177.66;5071651;28;20074;-80
2024/02/22 06:50:48;;;;;;;29.27;15.73;;;;;;;4.98;100.00;92176.91;5043951;28;20059;-78
2024/02/22 06:53:15;;;;;;;26.52;14.38;;;;;;;4.98;100.00;92170.94;5052584;28;20100;-79
2024/02/22 06:55:40;;;;;;;27.15;15.25;;;;;;;5.01;100.00;92162.63;5040091;28;20051;-80
2024/02/22 06:58:20;;;;;;;27.65;14.10;;;;;;;5.02;100.00;92156.38;5063474;28;20116;-80
2024/02/22 07:00:58;;;;;;;25.25;14.23;;;;;;;5.01;100.00;92149.66;5055810;28;20112;-81
2024/02/22 07:03:52;;;;;;;22.40;12.77;;;;;;;5.02;100.00;92153.78;5054898;28;20042;-81
2024/02/22 07:06:58;;;;;;;21.35;12.35;;;;;;;5.06;100.00;92152.25;5045668;28;20052;-79
2024/02/22 07:09:25;;;;;;;23.33;12.68;;;;;;;5.03;100.00;92150.16;5029326;28;20052;-80
2024/02/22 07:11:51;;;;;;;20.98;13.27;;;;;;;5.07;100.00;92147.84;5032381;28;20041;-82
2024/02/22 07:14:16;;;;;;;21.50;11.90;;;;;;;5.09;100.00;92145.75;5037304;28;20685;-80
2024/02/22 07:16:42;;;;;;;17.65;11.40;;;;;;;5.10;100.00;92142.13;5036220;28;20411;-79
2024/02/22 07:19:14;;;;;;;21.73;11.60;;;;;;;5.08;100.00;92137.19;5014537;28;20425;-80
2024/02/22 07:21:40;;;;;;;19.75;10.63;;;;;;;5.05;100.00;92136.94;5037936;28;20047;-81
2024/02/22 07:24:06;;;;;;;21.10;10.98;;;;;;;5.07;100.00;92143.44;5032918;28;20365;-81
2024/02/22 07:26:43;;;;;;;17.13;10.38;;;;;;;5.05;100.00;92140.31;5033399;28;20064;-82
2024/02/22 07:29:09;;;;;;;18.10;9.93;;;;;;;5.08;100.00;92129.41;5029443;28;20047;-78
2024/02/22 07:31:35;;;;;;;18.05;10.55;;;;;;;5.11;100.00;92128.09;5039906;28;20285;-81
2024/02/22 07:34:00;;;;;;;19.10;9.80;;;;;;;5.12;100.00;92130.44;5047110;28;20045;-78
2024/02/22 07:36:27;;;;;;;19.73;9.57;;;;;;;5.15;100.00;92139.53;5030690;28;20025;-77
2024/02/22 07:38:53;;;;;;;20.58;11.20;;;;;;;5.15;100.00;92135.09;5032884;28;20033;-80
2024/02/22 07:41:19;;;;;;;19.73;11.00;;;;;;;5.16;100.00;92123.69;5033691;28;20060;-79
2024/02/22 07:43:47;;;;;;;17.73;10.45;;;;;;;5.19;100.00;92123.16;5035894;28;20374;-76
2024/02/22 07:46:14;;;;;;;16.90;9.65;;;;;;;5.21;100.00;92122.91;5035402;28;20021;-79
2024/02/22 07:48:41;;;;;;;15.25;8.90;;;;;;;5.21;100.00;92128.88;5035788;28;20056;-80
2024/02/22 07:51:07;;;;;;;15.27;8.93;;;;;;;5.23;100.00;92123.44;5048926;28;20035;-78
2024/02/22 07:53:34;;;;;;;15.82;8.40;;;;;;;5.24;100.00;92117.19;5018391;28;20030;-79
2024/02/22 07:56:07;;;;;;;15.80;8.18;;;;;;;5.22;100.00;92120.06;5014822;28;20414;-80
2024/02/22 07:58:58;;;;;;;14.65;8.32;;;;;;;5.22;100.00;92114.88;5013777;28;20038;-79
2024/02/22 08:01:23;;;;;;;16.45;9.02;;;;;;;5.19;100.00;92101.63;5017280;28;20045;-78
2024/02/22 08:03:49;;;;;;;17.65;8.65;;;;;;;5.24;100.00;92106.03;5013660;28;20498;-79
2024/02/22 08:06:15;;;;;;;15.40;8.95;;;;;;;5.21;100.00;92096.97;5007770;28;1149323;-79
2024/02/22 08:08:41;;;;;;;17.17;9.20;;;;;;;5.19;100.00;92089.44;5037588;28;20048;-77
2024/02/22 08:11:08;;;;;;;18.35;9.73;;;;;;;5.19;100.00;92094.63;5035509;28;20044;-78
2024/02/22 08:13:34;;;;;;;16.40;10.30;;;;;;;5.23;100.00;92094.88;5043217;28;20063;-78
2024/02/22 08:16:07;;;;;;;19.27;10.10;;;;;;;5.25;100.00;92097.22;5053153;28;20124;-78
2024/02/22 08:18:37;;;;;;;17.65;10.05;;;;;;;5.22;100.00;92098.50;5053941;28;20408;-78
2024/02/22 08:21:03;;;;;;;18.63;10.48;;;;;;;5.28;100.00;92088.91;5053550;28;20457;-78
2024/02/22 08:23:29;;;;;;;19.00;10.73;;;;;;;5.27;100.00;92100.31;5037109;28;20080;-78
2024/02/22 08:25:55;;;;;;;15.32;9.00;;;;;;;5.29;100.00;92093.84;5047027;28;20071;-78
2024/02/22 08:28:23;;;;;;;17.90;9.63;;;;;;;5.32;100.00;92095.13;5046284;28;20590;-78
2024/02/22 08:30:48;;;;;;;18.08;9.70;;;;;;;5.36;100.00;92101.38;5034667;28;20049;-78
2024/02/22 08:33:14;;;;;;;15.23;8.50;;;;;;;5.37;100.00;92103.69;5053566;28;20037;-79
2024/02/22 08:35:40;;;;;;;15.15;9.35;;;;;;;5.33;100.00;92092.25;5040294;28;20036;-80
2024/02/22 08:38:07;;;;;;;17.20;9.40;;;;;;;5.45;100.00;92107.56;5030135;28;20105;-78
2024/02/22 08:40:33;;;;;;;18.10;9.93;;;;;;;5.49;100.00;92100.78;5056248;28;20048;-77
2024/02/22 08:43:00;;;;;;;16.48;10.15;;;;;;;5.43;100.00;92094.84;5060494;28;20036;-78
2024/02/22 08:45:26;;;;;;;28.60;9.93;;;;;;;5.43;100.00;92097.44;5053807;28;20544;-78
2024/02/22 08:47:52;;;;;;;18.25;10.30;;;;;;;5.40;100.00;92095.38;5056056;28;20025;-78
2024/02/22 08:50:18;;;;;;;17.92;9.75;;;;;;;5.44;100.00;92090.44;5023158;28;20037;-78
2024/02/22 08:52:43;;;;;;;16.13;9.52;;;;;;;5.42;100.00;92074.34;5034169;28;20048;-78
2024/02/22 08:55:12;;;;;;;15.32;9.57;;;;;;;5.45;100.00;92076.41;5061961;28;20056;-78
2024/02/22 08:57:38;;;;;;;15.68;9.63;;;;;;;5.45;100.00;92066.03;5052324;28;20532;-78
2024/02/22 09:00:05;;;;;;;15.10;8.70;;;;;;;5.49;100.00;92056.66;5033627;28;20036;-77
2024/02/22 09:02:32;;;;;;;15.63;8.82;;;;;;;5.54;100.00;92064.44;5055869;28;20021;-76
2024/02/22 09:04:58;;;;;;;21.23;10.25;;;;;;;5.56;100.00;92066.75;5051007;28;20345;-77
2024/02/22 09:07:27;;;;;;;18.63;9.90;;;;;;;5.60;100.00;92067.78;5039837;28;20129;-78
2024/02/22 09:09:52;;;;;;;20.23;9.93;;;;;;;5.62;100.00;92070.91;5054589;28;20124;-78
2024/02/22 09:12:18;;;;;;;18.92;10.52;;;;;;;5.54;100.00;92072.25;5037625;28;20658;-77
2024/02/22 09:14:43;;;;;;;16.42;9.80;;;;;;;5.57;100.00;92071.69;5030729;28;20037;-78
2024/02/22 09:17:09;;;;;;;19.48;9.70;;;;;;;5.60;100.00;92072.97;5021761;28;20021;-78
2024/02/22 09:19:35;;;;;;;15.23;9.02;;;;;;;5.65;100.00;92072.97;5059517;28;20055;-78
2024/02/22 09:22:02;;;;;;;18.27;9.43;;;;;;;5.58;100.00;92075.88;5060214;28;20028;-77
2024/02/22 09:24:29;;;;;;;17.50;9.27;;;;;;;5.56;100.00;92077.94;5041872;28;20044;-78
2024/02/22 09:26:55;;;;;;;15.82;9.68;;;;;;;5.49;100.00;92067.03;5033680;28;20040;-77
2024/02/22 09:29:21;;;;;;;19.10;9.65;;;;;;;5.40;100.00;92058.25;5059127;28;20505;-77
2024/02/22 09:31:46;;;;;;;14.07;8.70;;;;;;;5.46;100.00;92067.56;5045261;28;20101;-77
2024/02/22 09:34:12;;;;;;;17.48;9.25;;;;;;;5.46;100.00;92064.97;5047743;28;20056;-80
2024/02/22 09:36:40;;;;;;;15.98;8.77;;;;;;;5.52;100.00;92068.34;5046809;28;20064;-78
2024/02/22 09:39:07;;;;;;;16.55;9.02;;;;;;;5.54;100.00;92059.25;5073547;28;20042;-79
2024/02/22 09:41:34;;;;;;;17.95;8.98;;;;;;;5.58;100.00;92049.91;5056570;28;20078;-80
2024/02/22 09:43:59;;;;;;;15.60;8.68;;;;;;;5.70;100.00;92059.19;5041164;28;20385;-79
2024/02/22 09:46:26;;;;;;;12.93;7.97;;;;;;;5.74;100.00;92068.78;5022323;28;20032;-78
2024/02/22 09:48:52;;;;;;;16.75;8.55;;;;;;;5.67;100.00;92072.69;5044377;28;20032;-79
2024/02/22 09:51:18;;;;;;;16.73;9.60;;;;;;;5.66;100.00;92060.78;5041714;28;20039;-79
2024/02/22 09:53:45;;;;;;;15.40;9.15;;;;;;;5.62;100.00;92052.72;5054830;28;20087;-79
2024/02/22 09:56:13;;;;;;;16.63;8.90;;;;;;;5.68;100.00;92048.31;5054881;28;20032;-79
2024/02/22 09:58:39;;;;;;;8.63;5.20;;;;;;;6.03;100.00;92047.38;5062870;28;20051;-79
2024/02/22 10:01:05;;;;;;;15.52;8.48;;;;;;;5.90;100.00;92050.53;5053046;28;20029;-79
2024/02/22 10:03:32;;;;;;;22.33;9.93;;;;;;;5.78;100.00;92037.84;5052307;28;20033;-79
2024/02/22 10:05:58;;;;;;;21.52;11.98;;;;;;;5.72;100.00;92036.31;5036157;28;20049;-79
2024/02/22 10:08:24;;;;;;;21.45;10.93;;;;;;;5.75;100.00;92038.41;5053215;28;20178;-78
2024/02/22 10:10:50;;;;;;;21.08;11.80;;;;;;;5.66;100.00;92034.81;5064718;28;20024;-77
2024/02/22 10:13:20;;;;;;;16.23;10.35;;;;;;;5.62;100.00;92045.69;5039556;28;20063;-79
2024/02/22 10:15:46;;;;;;;16.52;9.85;;;;;;;5.70;100.00;92052.19;5051618;28;20493;-79
2024/02/22 10:18:11;;;;;;;19.08;9.88;;;;;;;5.59;100.00;92051.44;5048581;28;20035;-78
2024/02/22 10:20:37;;;;;;;14.40;8.35;;;;;;;5.54;100.00;92038.47;5054869;28;20041;-79
2024/02/22 10:23:07;;;;;;;13.52;8.07;;;;;;;5.61;100.00;92043.41;5036189;28;20133;-78
2024/02/22 10:25:32;;;;;;;15.77;7.93;;;;;;;5.72;100.00;92038.91;5053157;28;20041;-79
2024/02/22 10:27:58;;;;;;;19.20;10.60;;;;;;;5.75;100.00;92033.19;5068590;28;20071;-79
2024/02/22 10:30:26;;;;;;;15.45;8.70;;;;;;;5.69;100.00;92034.25;5060666;28;20522;-79
2024/02/22 10:32:55;;;;;;;14.50;9.07;;;;;;;5.62;100.00;92022.34;5045607;28;20029;-78
2024/02/22 10:35:23;;;;;;;15.38;8.60;;;;;;;5.64;100.00;92030.63;5069397;28;20066;-79
2024/02/22 10:37:52;;;;;;;16.27;9.18;;;;;;;5.46;100.00;92017.47;5047592;28;20039;-78
2024/02/22 10:40:18;;;;;;;16.42;9.88;;;;;;;5.54;100.00;92028.09;5044640;28;20033;-79
2024/02/22 10:42:44;;;;;;;20.65;10.40;;;;;;;5.61;100.00;92022.63;5032237;28;20083;-78
2024/02/22 10:45:11;;;;;;;15.85;9.32;;;;;;;5.69;100.00;92024.63;5039660;28;20052;-78
2024/02/22 10:47:39;;;;;;;18.15;9.45;;;;;;;5.76;100.00;92013.97;5056923;28;20051;-79
2024/02/22 10:50:06;;;;;;;16.08;8.65;;;;;;;5.86;100.00;92013.94;5037453;28;20570;-79
2024/02/22 10:52:37;;;;;;;15.93;8.68;;;;;;;5.85;100.00;91996.78;5034719;28;20029;-79
2024/02/22 10:55:06;;;;;;;15.23;9.53;;;;;;;5.92;100.00;92001.66;5034206;28;20380;-78
2024/02/22 10:57:34;;;;;;;13.00;8.00;;;;;;;5.84;100.00;91984.84;5060032;28;20487;-79
2024/02/22 11:00:01;;;;;;;24.35;11.77;;;;;;;5.82;100.00;91976.53;5065941;28;20033;-78
2024/02/22 11:02:28;;;;;;;24.35;12.48;;;;;;;5.74;100.00;91969.31;5017393;28;20374;-78
2024/02/22 11:05:01;;;;;;;15.63;8.05;;;;;;;5.98;100.00;91974.66;5048668;28;20064;-79
2024/02/22 11:07:30;;;;;;;43.53;14.38;;;;;;;5.85;100.00;91976.00;5051833;28;20044;-78
2024/02/22 11:10:06;;;;;;;52.15;13.77;;;;;;;5.59;100.00;91967.56;5053402;28;20499;-79
2024/02/22 11:12:33;;;;;;;23.60;14.00;;;;;;;5.52;100.00;91967.09;5058970;28;20117;-79
2024/02/22 11:15:10;;;;;;;27.38;14.90;;;;;;;5.52;100.00;91970.47;5054200;28;20056;-78
2024/02/22 11:17:36;;;;;;;25.17;13.93;;;;;;;5.56;100.00;91963.69;5062143;28;20043;-78